Time;durP1;ratioP1;P1;durP2;ratioP2;P2;SDS_P1;SDS_P2;PMS_P1;PMS_P2;Temp;Humidity;BMP_temperature;BMP_pressure;BME280_temperature;BME280_humidity;BME280_pressure;Samples;Min_cycle;Max_cycle;Signal;HPM_P1;HPM_P2
2023/12/25 00:01:54;;;;;;;14.88;12.60;;;;;;;;;;4975230;28;20114;-43
2023/12/25 00:04:20;;;;;;;14.52;11.68;;;;;;;;;;4966946;28;20058;-47
2023/12/25 00:06:46;;;;;;;14.30;10.88;;;;;;;;;;4968103;28;20550;-47
2023/12/25 00:09:12;;;;;;;14.25;10.82;;;;;;;;;;4968198;28;20030;-46
2023/12/25 00:11:38;;;;;;;14.15;10.68;;;;;;;;;;4985770;28;20029;-49
2023/12/25 00:14:04;;;;;;;14.23;10.63;;;;;;;;;;4987492;28;20026;-50
2023/12/25 00:16:30;;;;;;;14.70;12.10;;;;;;;;;;4987594;28;20034;-49
2023/12/25 00:18:58;;;;;;;14.50;11.60;;;;;;;;;;4987563;28;20026;-45
2023/12/25 00:21:26;;;;;;;14.30;10.77;;;;;;;;;;4987426;28;20014;-45
2023/12/25 00:23:52;;;;;;;14.10;10.33;;;;;;;;;;4986281;28;20084;-48
2023/12/25 00:26:18;;;;;;;14.00;10.10;;;;;;;;;;4982713;28;20018;-46
2023/12/25 00:28:44;;;;;;;14.10;10.30;;;;;;;;;;4986505;28;20548;-48
2023/12/25 00:31:10;;;;;;;13.80;9.63;;;;;;;;;;4987215;28;20257;-48
2023/12/25 00:33:36;;;;;;;13.80;9.45;;;;;;;;;;5005706;23;20655;-58
2023/12/25 00:36:02;;;;;;;13.48;8.60;;;;;;;;;;4988200;28;20026;-55
2023/12/25 00:38:28;;;;;;;13.45;8.40;;;;;;;;;;4988427;28;20027;-58
2023/12/25 00:40:53;;;;;;;13.30;7.93;;;;;;;;;;4986488;28;20061;-56
2023/12/25 00:43:19;;;;;;;13.35;8.07;;;;;;;;;;4988296;28;20034;-58
2023/12/25 00:45:45;;;;;;;12.88;7.55;;;;;;;;;;4992428;28;20113;-57
2023/12/25 00:48:11;;;;;;;13.05;7.75;;;;;;;;;;4993143;28;20087;-57
2023/12/25 00:50:37;;;;;;;12.63;7.45;;;;;;;;;;4990921;28;20033;-56
2023/12/25 00:53:03;;;;;;;12.88;7.63;;;;;;;;;;4992376;28;20468;-58
2023/12/25 00:55:30;;;;;;;13.10;7.90;;;;;;;;;;4992399;28;20020;-58
2023/12/25 00:57:56;;;;;;;12.55;7.40;;;;;;;;;;4992473;28;20022;-59
2023/12/25 01:00:22;;;;;;;12.60;7.43;;;;;;;;;;4992516;28;20018;-59
2023/12/25 01:02:48;;;;;;;12.68;7.47;;;;;;;;;;4992021;28;20065;-56
2023/12/25 01:05:14;;;;;;;12.45;7.32;;;;;;;;;;4992209;28;20030;-58
2023/12/25 01:07:40;;;;;;;12.70;7.50;;;;;;;;;;4991239;28;20038;-60
2023/12/25 01:10:07;;;;;;;12.82;7.53;;;;;;;;;;4992360;28;20018;-58
2023/12/25 01:12:33;;;;;;;14.52;8.32;;;;;;;;;;4992190;28;20031;-58
2023/12/25 01:14:59;;;;;;;13.50;8.23;;;;;;;;;;4992296;28;20030;-57
2023/12/25 01:17:25;;;;;;;13.70;8.63;;;;;;;;;;4992262;28;20018;-56
2023/12/25 01:19:51;;;;;;;13.45;8.45;;;;;;;;;;4992691;28;20022;-59
2023/12/25 01:22:17;;;;;;;13.70;8.68;;;;;;;;;;4991862;28;20026;-61
2023/12/25 01:24:43;;;;;;;13.77;9.23;;;;;;;;;;4991905;28;20034;-57
2023/12/25 01:27:09;;;;;;;14.05;10.27;;;;;;;;;;4992106;28;20021;-57
2023/12/25 01:29:35;;;;;;;15.45;12.10;;;;;;;;;;4991108;28;20509;-54
2023/12/25 01:32:01;;;;;;;14.80;11.50;;;;;;;;;;4991892;28;20085;-58
2023/12/25 01:34:27;;;;;;;14.95;12.63;;;;;;;;;;4990520;28;20026;-59
2023/12/25 01:36:53;;;;;;;15.75;12.95;;;;;;;;;;4992210;28;20030;-57
2023/12/25 01:39:19;;;;;;;17.45;15.65;;;;;;;;;;4992032;28;20023;-56
2023/12/25 01:41:45;;;;;;;18.48;16.67;;;;;;;;;;4991720;28;20038;-58
2023/12/25 01:44:12;;;;;;;17.20;15.50;;;;;;;;;;4991906;28;20488;-58
2023/12/25 01:46:38;;;;;;;18.20;16.40;;;;;;;;;;4990578;28;20021;-58
2023/12/25 01:49:05;;;;;;;17.52;15.82;;;;;;;;;;4999867;28;20165;-57
2023/12/25 01:51:32;;;;;;;17.92;16.23;;;;;;;;;;4991127;28;20023;-58
2023/12/25 01:53:58;;;;;;;18.15;16.33;;;;;;;;;;4991416;28;20046;-59
2023/12/25 01:56:24;;;;;;;17.13;15.43;;;;;;;;;;4998787;28;20032;-58
2023/12/25 01:58:50;;;;;;;18.27;16.55;;;;;;;;;;4991695;28;20030;-58
2023/12/25 02:01:16;;;;;;;22.45;20.55;;;;;;;;;;4991069;28;20057;-56
2023/12/25 02:03:42;;;;;;;20.35;18.55;;;;;;;;;;4991193;28;20046;-57
2023/12/25 02:06:08;;;;;;;19.30;17.50;;;;;;;;;;4991279;28;20035;-59
2023/12/25 02:08:34;;;;;;;17.80;16.10;;;;;;;;;;4991160;28;20019;-59
2023/12/25 02:11:03;;;;;;;17.67;15.98;;;;;;;;;;4991030;28;20018;-58
2023/12/25 02:13:29;;;;;;;18.58;16.77;;;;;;;;;;4989567;28;20059;-60
2023/12/25 02:15:56;;;;;;;17.20;15.50;;;;;;;;;;4989826;28;20502;-60
2023/12/25 02:18:22;;;;;;;16.23;14.52;;;;;;;;;;4998613;28;20022;-59
2023/12/25 02:20:48;;;;;;;14.73;12.38;;;;;;;;;;4991210;28;20081;-58
2023/12/25 02:23:16;;;;;;;14.65;12.20;;;;;;;;;;4990814;28;20122;-58
2023/12/25 02:25:51;;;;;;;14.15;10.40;;;;;;;;;;4992948;28;20022;-58
2023/12/25 02:28:17;;;;;;;14.25;10.82;;;;;;;;;;4995517;28;20106;-59
2023/12/25 02:30:45;;;;;;;14.80;12.40;;;;;;;;;;4990650;28;20062;-56
2023/12/25 02:33:11;;;;;;;16.05;14.35;;;;;;;;;;4990583;28;20057;-56
2023/12/25 02:35:37;;;;;;;15.20;13.40;;;;;;;;;;4990832;28;20068;-57
2023/12/25 02:38:03;;;;;;;15.45;13.75;;;;;;;;;;4989672;28;20034;-58
2023/12/25 02:40:29;;;;;;;15.00;13.02;;;;;;;;;;4990659;28;20505;-52
2023/12/25 02:42:54;;;;;;;15.13;13.35;;;;;;;;;;4990469;28;20018;-55
2023/12/25 02:45:20;;;;;;;15.75;14.05;;;;;;;;;;4990678;28;20464;-56
2023/12/25 02:47:46;;;;;;;14.95;12.95;;;;;;;;;;4990528;28;20022;-55
2023/12/25 02:50:12;;;;;;;14.95;12.90;;;;;;;;;;4990721;28;20104;-58
2023/12/25 02:52:38;;;;;;;14.80;12.65;;;;;;;;;;4990469;28;20066;-56
2023/12/25 02:55:05;;;;;;;14.70;12.38;;;;;;;;;;4990546;28;20041;-58
2023/12/25 02:57:30;;;;;;;14.50;11.50;;;;;;;;;;4990364;28;20050;-57
2023/12/25 02:59:56;;;;;;;14.68;11.98;;;;;;;;;;4994274;28;20060;-56
2023/12/25 03:02:23;;;;;;;14.23;10.73;;;;;;;;;;4994058;28;20021;-53
2023/12/25 03:04:49;;;;;;;14.20;10.60;;;;;;;;;;4988376;28;20034;-55
2023/12/25 03:07:15;;;;;;;14.20;10.48;;;;;;;;;;4989421;28;20507;-58
2023/12/25 03:09:41;;;;;;;14.00;10.05;;;;;;;;;;4990121;28;20152;-56
2023/12/25 03:12:07;;;;;;;14.20;10.60;;;;;;;;;;4988577;28;20084;-55
2023/12/25 03:14:33;;;;;;;14.10;10.27;;;;;;;;;;4989840;28;20029;-59
2023/12/25 03:16:59;;;;;;;13.95;9.75;;;;;;;;;;4989999;28;20496;-58
2023/12/25 03:19:25;;;;;;;13.93;9.93;;;;;;;;;;4988734;28;20031;-54
2023/12/25 03:21:51;;;;;;;13.90;9.80;;;;;;;;;;4989530;28;20112;-54
2023/12/25 03:24:17;;;;;;;13.70;9.20;;;;;;;;;;4988381;28;20611;-54
2023/12/25 03:26:43;;;;;;;13.65;9.10;;;;;;;;;;4988452;28;20029;-55
2023/12/25 03:29:09;;;;;;;13.52;8.75;;;;;;;;;;4989665;28;20108;-56
2023/12/25 03:31:35;;;;;;;12.95;7.60;;;;;;;;;;4989323;28;20025;-57
2023/12/25 03:34:01;;;;;;;11.13;6.60;;;;;;;;;;4989439;28;20035;-57
2023/12/25 03:36:27;;;;;;;9.55;5.63;;;;;;;;;;4988410;28;20089;-55
2023/12/25 03:38:53;;;;;;;9.45;5.55;;;;;;;;;;4989747;28;20105;-57
2023/12/25 03:41:20;;;;;;;8.82;5.25;;;;;;;;;;4989210;28;20018;-55
2023/12/25 03:43:46;;;;;;;10.65;6.32;;;;;;;;;;4989266;28;20038;-55
2023/12/25 03:46:12;;;;;;;10.15;5.93;;;;;;;;;;4989656;28;20037;-54
2023/12/25 03:48:38;;;;;;;12.38;7.38;;;;;;;;;;4989402;28;20026;-58
2023/12/25 03:51:04;;;;;;;13.45;8.20;;;;;;;;;;4988023;28;20551;-58
2023/12/25 03:53:31;;;;;;;13.35;8.25;;;;;;;;;;4989320;28;20492;-60
2023/12/25 03:56:01;;;;;;;13.52;8.52;;;;;;;;;;4988104;28;20026;-58
2023/12/25 03:58:27;;;;;;;14.95;13.02;;;;;;;;;;4989431;28;20023;-56
2023/12/25 04:00:53;;;;;;;15.88;14.18;;;;;;;;;;4987948;28;20030;-56
2023/12/25 04:03:19;;;;;;;17.20;15.50;;;;;;;;;;4989250;28;20392;-57
2023/12/25 04:05:45;;;;;;;19.50;17.70;;;;;;;;;;4989188;28;20026;-58
2023/12/25 04:08:11;;;;;;;17.83;16.13;;;;;;;;;;4988138;28;20029;-57
2023/12/25 04:10:37;;;;;;;17.77;16.08;;;;;;;;;;4989007;28;20029;-59
2023/12/25 04:13:03;;;;;;;17.58;15.88;;;;;;;;;;4989088;28;20060;-58
2023/12/25 04:15:29;;;;;;;16.63;14.93;;;;;;;;;;4989155;28;20094;-59
2023/12/25 04:17:56;;;;;;;16.55;14.85;;;;;;;;;;4988881;28;20019;-59
2023/12/25 04:20:22;;;;;;;17.55;15.85;;;;;;;;;;4991972;28;20498;-58
2023/12/25 04:22:49;;;;;;;20.23;18.42;;;;;;;;;;4992969;28;20042;-60
2023/12/25 04:25:15;;;;;;;25.60;23.50;;;;;;;;;;4993131;28;20476;-58
2023/12/25 04:27:41;;;;;;;17.05;15.35;;;;;;;;;;4992942;28;20097;-56
2023/12/25 04:30:07;;;;;;;17.67;15.98;;;;;;;;;;4993077;28;20093;-56
2023/12/25 04:32:33;;;;;;;16.17;14.48;;;;;;;;;;4992439;28;20066;-57
2023/12/25 04:34:59;;;;;;;15.77;14.07;;;;;;;;;;4992680;28;20156;-58
2023/12/25 04:37:25;;;;;;;16.08;14.38;;;;;;;;;;5000451;28;20022;-58
2023/12/25 04:39:51;;;;;;;15.57;13.88;;;;;;;;;;4992943;28;20104;-58
2023/12/25 04:42:17;;;;;;;15.40;13.70;;;;;;;;;;4992327;28;20027;-57
2023/12/25 04:44:43;;;;;;;15.02;13.07;;;;;;;;;;4992480;28;20042;-57
2023/12/25 04:47:09;;;;;;;15.70;14.00;;;;;;;;;;4992844;28;20444;-58
2023/12/25 04:49:35;;;;;;;15.00;12.90;;;;;;;;;;4991479;28;20026;-58
2023/12/25 04:52:02;;;;;;;14.70;11.88;;;;;;;;;;4991036;28;20484;-57
2023/12/25 04:54:28;;;;;;;13.50;8.70;;;;;;;;;;4992443;28;20038;-56
2023/12/25 04:56:56;;;;;;;13.70;9.10;;;;;;;;;;4992660;28;20019;-58
2023/12/25 04:59:22;;;;;;;13.77;9.27;;;;;;;;;;4992731;28;20022;-58
2023/12/25 05:01:49;;;;;;;13.88;9.70;;;;;;;;;;5000271;28;20069;-59
2023/12/25 05:04:16;;;;;;;14.13;10.43;;;;;;;;;;4992262;28;20014;-58
2023/12/25 05:06:42;;;;;;;14.43;11.45;;;;;;;;;;5000495;28;20025;-56
2023/12/25 05:09:08;;;;;;;14.20;10.57;;;;;;;;;;4992886;28;20435;-56
2023/12/25 05:11:34;;;;;;;14.20;10.80;;;;;;;;;;5000863;28;20021;-57
2023/12/25 05:14:00;;;;;;;14.50;11.65;;;;;;;;;;4992343;28;20052;-57
2023/12/25 05:16:27;;;;;;;14.30;11.07;;;;;;;;;;4992308;28;20101;-57
2023/12/25 05:18:53;;;;;;;14.43;11.38;;;;;;;;;;4992433;28;20019;-58
2023/12/25 05:21:19;;;;;;;14.30;10.95;;;;;;;;;;4999089;28;20029;-58
2023/12/25 05:23:45;;;;;;;14.23;10.75;;;;;;;;;;4993179;28;20026;-58
2023/12/25 05:26:11;;;;;;;14.15;10.43;;;;;;;;;;4998096;28;20025;-57
2023/12/25 05:28:37;;;;;;;14.10;10.50;;;;;;;;;;5002360;28;20525;-57
2023/12/25 05:31:03;;;;;;;13.88;10.00;;;;;;;;;;4990898;28;20030;-58
2023/12/25 05:33:29;;;;;;;13.95;9.88;;;;;;;;;;4991735;28;20034;-55
2023/12/25 05:35:55;;;;;;;13.98;9.95;;;;;;;;;;5003396;28;20022;-59
2023/12/25 05:38:21;;;;;;;13.77;9.32;;;;;;;;;;4995834;28;20037;-58
2023/12/25 05:40:47;;;;;;;13.57;8.80;;;;;;;;;;4994011;28;20034;-58
2023/12/25 05:43:13;;;;;;;13.70;9.20;;;;;;;;;;4997047;28;20027;-53
2023/12/25 05:45:39;;;;;;;13.57;8.80;;;;;;;;;;4993000;28;20064;-58
2023/12/25 05:48:05;;;;;;;13.48;8.75;;;;;;;;;;4996946;28;20057;-58
2023/12/25 05:50:31;;;;;;;13.38;8.30;;;;;;;;;;4991495;28;20030;-58
2023/12/25 05:52:57;;;;;;;13.15;7.82;;;;;;;;;;4991837;28;20097;-58
2023/12/25 05:55:23;;;;;;;12.50;7.82;;;;;;;;;;4991510;28;20015;-58
2023/12/25 05:57:50;;;;;;;11.48;6.75;;;;;;;;;;4991292;28;20468;-58
2023/12/25 06:00:16;;;;;;;9.30;5.50;;;;;;;;;;4991268;28;20030;-59
2023/12/25 06:02:42;;;;;;;9.65;5.70;;;;;;;;;;4999186;28;20427;-59
2023/12/25 06:05:08;;;;;;;8.63;5.10;;;;;;;;;;4991202;28;20022;-59
2023/12/25 06:07:34;;;;;;;8.60;5.10;;;;;;;;;;4999228;28;20019;-59
2023/12/25 06:10:00;;;;;;;9.18;5.40;;;;;;;;;;4995547;28;20040;-57
2023/12/25 06:12:26;;;;;;;8.68;5.15;;;;;;;;;;4994808;28;20027;-58
2023/12/25 06:14:52;;;;;;;8.45;5.03;;;;;;;;;;4991115;28;20030;-59
2023/12/25 06:17:18;;;;;;;8.30;4.93;;;;;;;;;;4998031;28;20026;-58
2023/12/25 06:19:44;;;;;;;8.50;4.90;;;;;;;;;;4990810;28;20026;-59
2023/12/25 06:22:11;;;;;;;8.25;4.55;;;;;;;;;;4998702;28;20365;-58
2023/12/25 06:24:37;;;;;;;9.38;4.95;;;;;;;;;;4989356;28;20101;-59
2023/12/25 06:27:03;;;;;;;7.22;4.32;;;;;;;;;;4999153;28;20544;-59
2023/12/25 06:29:29;;;;;;;7.85;4.78;;;;;;;;;;4990938;28;20038;-59
2023/12/25 06:31:55;;;;;;;8.20;4.80;;;;;;;;;;4990879;28;20415;-59
2023/12/25 06:34:21;;;;;;;7.18;4.25;;;;;;;;;;4991540;28;20041;-59
2023/12/25 06:36:47;;;;;;;7.05;4.20;;;;;;;;;;4997772;28;20025;-59
2023/12/25 06:39:13;;;;;;;7.30;4.35;;;;;;;;;;4990549;28;20022;-58
2023/12/25 06:41:39;;;;;;;7.10;4.22;;;;;;;;;;4998520;28;20022;-58
2023/12/25 06:44:05;;;;;;;8.30;5.15;;;;;;;;;;4990586;28;20052;-58
2023/12/25 06:46:31;;;;;;;7.95;4.70;;;;;;;;;;4990419;28;20053;-59
2023/12/25 06:48:57;;;;;;;7.20;4.30;;;;;;;;;;4990725;28;20020;-59
2023/12/25 06:51:23;;;;;;;7.20;4.20;;;;;;;;;;4997710;28;20024;-59
2023/12/25 06:53:50;;;;;;;6.70;4.00;;;;;;;;;;4990751;28;20030;-59
2023/12/25 06:56:16;;;;;;;7.22;4.10;;;;;;;;;;4995456;28;20026;-57
2023/12/25 06:58:42;;;;;;;6.70;4.00;;;;;;;;;;4991832;28;20026;-58
2023/12/25 07:01:08;;;;;;;8.02;4.25;;;;;;;;;;4990074;28;20026;-58
2023/12/25 07:03:34;;;;;;;17.33;5.90;;;;;;;;;;4990060;28;20441;-59
2023/12/25 07:06:00;;;;;;;6.75;4.03;;;;;;;;;;4994551;28;20038;-59
2023/12/25 07:08:27;;;;;;;7.60;4.40;;;;;;;;;;4993728;28;20022;-59
2023/12/25 07:10:54;;;;;;;8.18;4.88;;;;;;;;;;4989716;28;20014;-59
2023/12/25 07:13:20;;;;;;;9.85;5.50;;;;;;;;;;4990084;28;20109;-59
2023/12/25 07:15:46;;;;;;;8.63;5.13;;;;;;;;;;4990295;28;20072;-55
2023/12/25 07:18:12;;;;;;;9.15;5.40;;;;;;;;;;4990050;28;20034;-58
2023/12/25 07:20:38;;;;;;;11.07;5.65;;;;;;;;;;4989713;28;20030;-58
2023/12/25 07:23:04;;;;;;;9.48;5.55;;;;;;;;;;4988611;28;20108;-60
2023/12/25 07:25:30;;;;;;;9.52;5.45;;;;;;;;;;4988495;28;20174;-57
2023/12/25 07:27:56;;;;;;;8.40;5.00;;;;;;;;;;4989926;28;20094;-58
2023/12/25 07:30:22;;;;;;;9.23;5.40;;;;;;;;;;4989827;28;20027;-55
2023/12/25 07:32:48;;;;;;;9.43;5.53;;;;;;;;;;4988396;28;20080;-58
2023/12/25 07:35:14;;;;;;;10.35;6.10;;;;;;;;;;4989695;28;20031;-57
2023/12/25 07:37:40;;;;;;;10.13;6.00;;;;;;;;;;4989589;28;20444;-58
2023/12/25 07:40:07;;;;;;;10.15;6.00;;;;;;;;;;4990014;28;20026;-59
2023/12/25 07:42:32;;;;;;;10.60;6.30;;;;;;;;;;4988448;28;20552;-55
2023/12/25 07:44:59;;;;;;;9.77;5.78;;;;;;;;;;4992738;28;20112;-57
2023/12/25 07:47:25;;;;;;;9.48;5.65;;;;;;;;;;4993898;28;20388;-60
2023/12/25 07:49:52;;;;;;;9.70;5.70;;;;;;;;;;4993076;28;20420;-58
2023/12/25 07:52:18;;;;;;;9.50;5.60;;;;;;;;;;4994290;28;20018;-59
2023/12/25 07:54:45;;;;;;;9.00;5.40;;;;;;;;;;4989426;28;20502;-57
2023/12/25 07:57:11;;;;;;;9.10;5.30;;;;;;;;;;4989603;28;20026;-58
2023/12/25 07:59:37;;;;;;;9.40;5.60;;;;;;;;;;4989900;28;20554;-58
2023/12/25 08:02:03;;;;;;;8.77;5.18;;;;;;;;;;4987985;28;20026;-56
2023/12/25 08:04:29;;;;;;;8.98;5.30;;;;;;;;;;4989244;28;20026;-56
2023/12/25 08:06:55;;;;;;;10.02;5.82;;;;;;;;;;4977045;28;20480;-58
2023/12/25 08:09:21;;;;;;;9.90;5.80;;;;;;;;;;4984870;28;20066;-59
2023/12/25 08:11:47;;;;;;;9.98;5.75;;;;;;;;;;4989169;28;20085;-58
2023/12/25 08:14:13;;;;;;;10.73;5.80;;;;;;;;;;4989256;28;20063;-59
2023/12/25 08:16:38;;;;;;;9.93;6.22;;;;;;;;;;4989117;28;20038;-54
2023/12/25 08:19:04;;;;;;;14.93;6.22;;;;;;;;;;4989451;28;20018;-58
2023/12/25 08:21:30;;;;;;;9.05;5.35;;;;;;;;;;4987647;28;20018;-58
2023/12/25 08:23:56;;;;;;;9.45;5.60;;;;;;;;;;4989003;28;20096;-59
2023/12/25 08:26:22;;;;;;;10.23;6.03;;;;;;;;;;4996454;28;20029;-58
2023/12/25 08:28:52;;;;;;;9.48;5.60;;;;;;;;;;4989876;28;20026;-59
2023/12/25 08:31:18;;;;;;;9.80;5.78;;;;;;;;;;4996386;28;20109;-60
2023/12/25 08:33:44;;;;;;;10.30;6.05;;;;;;;;;;4996509;28;20121;-57
2023/12/25 08:36:10;;;;;;;11.70;6.60;;;;;;;;;;4999960;28;20029;-58
2023/12/25 08:38:36;;;;;;;10.88;6.40;;;;;;;;;;4994384;28;20022;-58
2023/12/25 08:41:02;;;;;;;11.68;6.88;;;;;;;;;;4988752;28;20034;-61
2023/12/25 08:43:29;;;;;;;11.10;6.60;;;;;;;;;;4988822;28;20113;-58
2023/12/25 08:45:54;;;;;;;12.68;7.60;;;;;;;;;;4988861;28;20441;-59
2023/12/25 08:48:20;;;;;;;13.25;7.93;;;;;;;;;;4995987;28;20113;-55
2023/12/25 08:50:46;;;;;;;13.60;8.30;;;;;;;;;;4987313;28;20400;-56
2023/12/25 08:53:12;;;;;;;13.68;9.13;;;;;;;;;;4988913;28;20026;-56
2023/12/25 08:55:39;;;;;;;15.00;12.98;;;;;;;;;;4988843;28;20022;-56
2023/12/25 08:58:05;;;;;;;17.45;15.75;;;;;;;;;;4989055;28;20019;-57
2023/12/25 09:00:31;;;;;;;19.58;17.77;;;;;;;;;;4988845;28;20500;-55
2023/12/25 09:02:57;;;;;;;20.92;19.02;;;;;;;;;;4988560;28;20026;-57
2023/12/25 09:05:23;;;;;;;21.25;19.35;;;;;;;;;;4996780;28;20507;-55
2023/12/25 09:07:49;;;;;;;22.13;20.23;;;;;;;;;;5000121;28;20045;-56
2023/12/25 09:10:15;;;;;;;22.25;20.35;;;;;;;;;;4992362;28;20027;-56
2023/12/25 09:12:41;;;;;;;22.10;20.20;;;;;;;;;;4992126;28;20388;-56
2023/12/25 09:15:07;;;;;;;21.90;20.00;;;;;;;;;;4992156;28;20044;-50
2023/12/25 09:17:34;;;;;;;21.52;19.63;;;;;;;;;;4992047;28;20026;-57
2023/12/25 09:20:00;;;;;;;21.60;19.70;;;;;;;;;;4992138;28;20105;-56
2023/12/25 09:22:27;;;;;;;22.95;20.95;;;;;;;;;;4992111;28;20026;-55
2023/12/25 09:24:53;;;;;;;21.80;19.90;;;;;;;;;;4991772;28;20392;-55
2023/12/25 09:27:19;;;;;;;21.48;19.58;;;;;;;;;;4990773;28;20022;-57
2023/12/25 09:29:45;;;;;;;21.02;19.13;;;;;;;;;;4991966;28;20495;-53
2023/12/25 09:32:11;;;;;;;20.88;18.98;;;;;;;;;;4991594;28;20018;-52
2023/12/25 09:34:37;;;;;;;20.40;18.60;;;;;;;;;;4991450;28;20034;-52
2023/12/25 09:37:03;;;;;;;20.23;18.42;;;;;;;;;;4995647;28;20084;-50
2023/12/25 09:39:29;;;;;;;20.35;18.55;;;;;;;;;;4995241;28;20554;-55
2023/12/25 09:41:55;;;;;;;20.30;18.50;;;;;;;;;;4991504;28;20018;-55
2023/12/25 09:44:21;;;;;;;20.48;18.67;;;;;;;;;;4993567;28;20022;-52
2023/12/25 09:46:48;;;;;;;21.27;19.38;;;;;;;;;;4991378;28;20406;-56
2023/12/25 09:49:14;;;;;;;20.88;18.98;;;;;;;;;;4991498;28;20018;-52
2023/12/25 09:51:41;;;;;;;21.30;19.40;;;;;;;;;;4991409;28;20034;-53
2023/12/25 09:54:07;;;;;;;21.67;19.77;;;;;;;;;;4991434;28;20447;-55
2023/12/25 09:56:35;;;;;;;22.02;20.08;;;;;;;;;;4990065;28;20069;-56
2023/12/25 09:59:02;;;;;;;22.25;20.35;;;;;;;;;;4990217;28;20538;-53
2023/12/25 10:01:29;;;;;;;21.60;19.70;;;;;;;;;;4991375;28;20093;-53
2023/12/25 10:03:55;;;;;;;21.33;19.42;;;;;;;;;;4991299;28;20030;-50
2023/12/25 10:06:21;;;;;;;21.08;19.17;;;;;;;;;;4997262;28;20067;-53
2023/12/25 10:08:47;;;;;;;21.33;19.42;;;;;;;;;;5003109;28;20018;-53
2023/12/25 10:11:13;;;;;;;21.98;20.00;;;;;;;;;;5008833;28;20071;-53
2023/12/25 10:13:44;;;;;;;20.58;18.77;;;;;;;;;;4991329;28;20034;-52
2023/12/25 10:16:10;;;;;;;21.88;19.98;;;;;;;;;;4991033;28;20161;-50
2023/12/25 10:18:39;;;;;;;19.88;18.08;;;;;;;;;;4991063;28;20061;-53
2023/12/25 10:21:06;;;;;;;18.85;17.05;;;;;;;;;;4990745;28;20054;-55
2023/12/25 10:23:32;;;;;;;17.50;15.80;;;;;;;;;;4990761;28;20037;-49
2023/12/25 10:25:59;;;;;;;16.60;14.90;;;;;;;;;;4996227;28;20501;-55
2023/12/25 10:28:29;;;;;;;16.02;14.32;;;;;;;;;;4991531;28;20045;-51
2023/12/25 10:31:04;;;;;;;18.23;14.30;;;;;;;;;;4989320;28;20014;-50
2023/12/25 10:33:30;;;;;;;15.60;13.90;;;;;;;;;;4995539;28;20033;-52
2023/12/25 10:36:07;;;;;;;15.25;13.65;;;;;;;;;;4990820;28;20081;-51
2023/12/25 10:38:36;;;;;;;15.70;14.00;;;;;;;;;;4990650;28;20073;-52
2023/12/25 10:41:32;;;;;;;16.08;14.38;;;;;;;;;;4990440;28;20310;-52
2023/12/25 10:43:59;;;;;;;16.20;14.50;;;;;;;;;;4989574;28;20034;-52
2023/12/25 10:46:36;;;;;;;16.77;15.07;;;;;;;;;;4990480;28;20029;-51
2023/12/25 10:49:03;;;;;;;17.17;15.48;;;;;;;;;;4990255;28;20031;-55
2023/12/25 10:51:32;;;;;;;17.45;15.75;;;;;;;;;;4990115;28;20046;-51
2023/12/25 10:54:00;;;;;;;17.65;15.95;;;;;;;;;;4989492;28;20587;-53
2023/12/25 10:56:27;;;;;;;18.10;16.40;;;;;;;;;;4990830;28;20038;-50
2023/12/25 10:58:54;;;;;;;17.70;16.00;;;;;;;;;;4990355;28;20038;-51
2023/12/25 11:01:25;;;;;;;18.35;16.58;;;;;;;;;;4990141;28;20021;-55
2023/12/25 11:03:55;;;;;;;18.52;16.73;;;;;;;;;;4989932;28;20034;-55
2023/12/25 11:06:22;;;;;;;18.02;16.33;;;;;;;;;;4990472;28;20022;-54
2023/12/25 11:08:49;;;;;;;18.05;16.35;;;;;;;;;;4988753;28;20029;-52
2023/12/25 11:11:15;;;;;;;18.60;16.80;;;;;;;;;;4988618;28;20484;-53
2023/12/25 11:13:42;;;;;;;18.35;16.55;;;;;;;;;;4989878;28;20053;-53
2023/12/25 11:16:08;;;;;;;19.20;17.40;;;;;;;;;;4990113;28;20047;-55
2023/12/25 11:18:37;;;;;;;18.63;16.83;;;;;;;;;;4988587;28;20046;-52
2023/12/25 11:21:06;;;;;;;;;;;;;;;;;;4989171;28;20105;-53
2023/12/25 11:23:40;;;;;;;18.52;16.73;;;;;;;;;;4990039;28;20278;-56
2023/12/25 11:26:07;;;;;;;19.35;17.55;;;;;;;;;;4988674;28;20388;-52
2023/12/25 11:28:37;;;;;;;19.25;17.45;;;;;;;;;;4989454;28;20483;-55
2023/12/25 11:31:04;;;;;;;18.80;17.00;;;;;;;;;;4989614;28;20489;-50
2023/12/25 11:33:30;;;;;;;18.88;17.08;;;;;;;;;;4989727;28;20105;-56
2023/12/25 11:35:56;;;;;;;18.13;16.42;;;;;;;;;;4982122;28;20631;-54
2023/12/25 11:38:25;;;;;;;19.20;17.40;;;;;;;;;;4988560;28;20491;-54
2023/12/25 11:40:51;;;;;;;18.75;16.95;;;;;;;;;;4989286;28;20034;-55
2023/12/25 11:43:21;;;;;;;19.83;18.02;;;;;;;;;;4989514;28;20041;-53
2023/12/25 11:45:50;;;;;;;19.63;17.83;;;;;;;;;;4989415;28;20027;-56
2023/12/25 11:48:16;;;;;;;19.77;17.98;;;;;;;;;;4989377;28;20066;-57
2023/12/25 11:50:42;;;;;;;19.65;17.85;;;;;;;;;;4989336;28;20037;-54
2023/12/25 11:53:08;;;;;;;19.70;17.90;;;;;;;;;;4989418;28;20053;-55
2023/12/25 11:55:36;;;;;;;19.05;17.25;;;;;;;;;;4989525;28;20015;-51
2023/12/25 11:58:02;;;;;;;18.65;16.85;;;;;;;;;;4989468;28;20644;-53
2023/12/25 12:00:31;;;;;;;18.40;16.60;;;;;;;;;;4989308;28;20104;-51
2023/12/25 12:02:57;;;;;;;18.13;16.42;;;;;;;;;;4996480;28;20022;-53
2023/12/25 12:05:23;;;;;;;17.85;16.15;;;;;;;;;;5004576;28;20080;-53
2023/12/25 12:07:49;;;;;;;18.92;17.13;;;;;;;;;;5009106;28;20042;-52
2023/12/25 12:10:15;;;;;;;17.45;15.75;;;;;;;;;;5009367;28;20017;-55
2023/12/25 12:12:42;;;;;;;17.30;15.60;;;;;;;;;;5009063;28;20091;-50
2023/12/25 12:15:08;;;;;;;17.45;15.75;;;;;;;;;;5008973;28;20060;-53
2023/12/25 12:17:38;;;;;;;17.02;15.32;;;;;;;;;;5009142;28;20121;-56
2023/12/25 12:20:05;;;;;;;16.83;15.13;;;;;;;;;;5009109;28;20061;-54
2023/12/25 12:22:31;;;;;;;16.60;14.90;;;;;;;;;;5008738;28;20037;-55
2023/12/25 12:25:13;;;;;;;16.70;15.00;;;;;;;;;;5008986;28;20064;-56
2023/12/25 12:27:39;;;;;;;17.38;15.68;;;;;;;;;;5009132;28;20025;-54
2023/12/25 12:30:06;;;;;;;16.00;14.30;;;;;;;;;;5007744;28;20037;-56
2023/12/25 12:32:32;;;;;;;16.38;14.68;;;;;;;;;;4996338;28;20049;-52
2023/12/25 12:34:59;;;;;;;16.48;14.77;;;;;;;;;;5013059;23;20496;-53
2023/12/25 12:37:25;;;;;;;17.30;15.60;;;;;;;;;;4990503;28;20034;-49
2023/12/25 12:39:51;;;;;;;16.50;14.80;;;;;;;;;;4993173;28;20045;-48
2023/12/25 12:42:17;;;;;;;17.25;15.55;;;;;;;;;;4994282;28;20543;-48
2023/12/25 12:44:49;;;;;;;15.52;13.82;;;;;;;;;;4994434;28;20129;-49
2023/12/25 12:47:15;;;;;;;16.50;14.80;;;;;;;;;;4993016;28;20027;-51
2023/12/25 12:49:41;;;;;;;15.93;14.23;;;;;;;;;;4994305;28;20034;-51
2023/12/25 12:52:07;;;;;;;15.10;13.38;;;;;;;;;;4994038;28;20026;-51
2023/12/25 12:54:33;;;;;;;15.20;13.38;;;;;;;;;;4992778;28;20117;-52
2023/12/25 12:56:59;;;;;;;15.20;13.55;;;;;;;;;;4993945;28;20033;-52
2023/12/25 12:59:25;;;;;;;15.10;13.30;;;;;;;;;;4993866;28;20129;-54
2023/12/25 13:01:51;;;;;;;14.75;12.30;;;;;;;;;;4993710;28;20026;-53
2023/12/25 13:04:19;;;;;;;15.00;12.98;;;;;;;;;;4994162;28;20033;-50
2023/12/25 13:06:46;;;;;;;15.20;13.27;;;;;;;;;;4994072;28;20523;-52
2023/12/25 13:09:12;;;;;;;15.10;13.35;;;;;;;;;;4993939;28;20459;-51
2023/12/25 13:11:38;;;;;;;14.93;12.85;;;;;;;;;;4993479;28;20058;-55
2023/12/25 13:14:04;;;;;;;14.75;12.27;;;;;;;;;;4993718;28;20034;-51
2023/12/25 13:16:30;;;;;;;15.10;13.50;;;;;;;;;;4993653;28;20491;-53
2023/12/25 13:18:56;;;;;;;15.20;13.43;;;;;;;;;;4993355;28;20174;-52
2023/12/25 13:21:22;;;;;;;14.90;12.88;;;;;;;;;;4991735;28;20034;-50
2023/12/25 13:23:48;;;;;;;15.00;13.13;;;;;;;;;;4984878;28;20023;-49
2023/12/25 13:26:14;;;;;;;15.25;13.65;;;;;;;;;;4982213;28;20026;-51
2023/12/25 13:28:41;;;;;;;15.13;13.50;;;;;;;;;;4973873;28;20433;-52
2023/12/25 13:31:07;;;;;;;15.50;13.85;;;;;;;;;;4981382;28;20168;-52
2023/12/25 13:33:33;;;;;;;15.60;13.90;;;;;;;;;;4988929;28;20554;-48
2023/12/25 13:35:59;;;;;;;15.48;13.77;;;;;;;;;;4980620;28;20034;-52
2023/12/25 13:38:25;;;;;;;15.27;13.68;;;;;;;;;;4980874;28;20081;-48
2023/12/25 13:40:53;;;;;;;15.57;13.88;;;;;;;;;;4973743;28;20026;-48
2023/12/25 13:43:19;;;;;;;15.88;14.18;;;;;;;;;;4973812;28;20022;-50
2023/12/25 13:45:45;;;;;;;15.73;14.02;;;;;;;;;;4972513;28;20031;-50
2023/12/25 13:48:11;;;;;;;15.88;14.18;;;;;;;;;;4973894;28;20491;-49
2023/12/25 13:50:38;;;;;;;15.20;13.52;;;;;;;;;;4973058;28;20023;-49
2023/12/25 13:53:04;;;;;;;15.63;13.93;;;;;;;;;;4973818;28;20409;-48
2023/12/25 13:55:30;;;;;;;15.63;13.95;;;;;;;;;;4973777;28;20027;-51
2023/12/25 13:57:56;;;;;;;15.55;13.85;;;;;;;;;;4973928;28;20033;-50
2023/12/25 14:00:22;;;;;;;15.75;14.05;;;;;;;;;;4973878;28;20034;-53
2023/12/25 14:02:49;;;;;;;15.27;13.68;;;;;;;;;;4973547;28;20027;-51
2023/12/25 14:05:15;;;;;;;15.35;13.73;;;;;;;;;;4973466;28;20027;-49
2023/12/25 14:07:41;;;;;;;15.23;13.63;;;;;;;;;;4972091;28;20034;-50
2023/12/25 14:10:07;;;;;;;15.20;13.55;;;;;;;;;;4973327;28;20337;-47
2023/12/25 14:12:33;;;;;;;15.10;13.20;;;;;;;;;;4972073;28;20027;-54
2023/12/25 14:14:59;;;;;;;15.00;13.13;;;;;;;;;;4973353;28;20093;-53
2023/12/25 14:17:25;;;;;;;15.10;13.27;;;;;;;;;;4973437;28;20030;-55
2023/12/25 14:19:51;;;;;;;14.88;12.68;;;;;;;;;;4973321;28;20034;-52